Time;durP1;ratioP1;P1;durP2;ratioP2;P2;SDS_P1;SDS_P2;PMS_P1;PMS_P2;Temp;Humidity;BMP_temperature;BMP_pressure;BME280_temperature;BME280_humidity;BME280_pressure;Samples;Min_cycle;Max_cycle;Signal;HPM_P1;HPM_P2
2022/12/08 00:01:38;;;;;;;3.92;3.30;;;4.80;99.90;;;;;;5089880;28;20106;-64
2022/12/08 00:04:04;;;;;;;4.88;3.65;;;4.70;99.90;;;;;;5091189;28;20098;-64
2022/12/08 00:09:29;;;;;;;4.88;3.65;;;4.80;99.90;;;;;;5088984;28;20661;-64
2022/12/08 00:12:15;;;;;;;5.15;3.55;;;4.70;99.90;;;;;;5076674;28;20164;-64
2022/12/08 00:14:43;;;;;;;4.88;3.45;;;4.70;99.90;;;;;;5088936;28;20024;-64
2022/12/08 00:17:11;;;;;;;6.63;3.78;;;4.70;99.90;;;;;;5088469;28;20035;-64
2022/12/08 00:19:38;;;;;;;5.70;3.63;;;4.70;99.90;;;;;;5094217;28;20115;-64
2022/12/08 00:22:04;;;;;;;6.85;4.40;;;4.70;99.90;;;;;;5089850;28;20028;-64
2022/12/08 00:24:33;;;;;;;6.00;3.90;;;4.80;99.90;;;;;;5089761;28;20023;-63
2022/12/08 00:26:59;;;;;;;6.72;3.67;;;4.80;99.90;;;;;;5091215;28;20012;-64
2022/12/08 00:29:25;;;;;;;5.45;3.88;;;4.80;99.90;;;;;;5088469;28;20020;-63
2022/12/08 00:31:51;;;;;;;6.60;4.43;;;4.80;99.90;;;;;;5088666;28;20149;-63
2022/12/08 00:34:16;;;;;;;8.85;4.43;;;4.80;99.90;;;;;;5087996;28;20596;-63
2022/12/08 00:36:43;;;;;;;6.88;4.60;;;4.70;99.90;;;;;;5091288;28;20020;-64
2022/12/08 00:39:09;;;;;;;7.55;4.78;;;4.70;99.90;;;;;;5070058;28;20028;-63
2022/12/08 00:44:19;;;;;;;9.85;7.15;;;4.60;99.90;;;;;;5094256;28;20129;-64
2022/12/08 00:46:45;;;;;;;8.18;6.40;;;4.60;99.90;;;;;;5088466;28;20499;-63
2022/12/08 00:49:11;;;;;;;8.52;5.95;;;4.60;99.90;;;;;;5094142;28;20024;-64
2022/12/08 00:51:37;;;;;;;8.40;6.32;;;4.60;99.90;;;;;;5095199;28;20028;-63
2022/12/08 00:54:04;;;;;;;8.20;7.38;;;4.60;99.90;;;;;;5097881;28;20089;-63
2022/12/08 00:56:29;;;;;;;9.93;7.47;;;4.60;99.90;;;;;;5095295;28;20031;-63
2022/12/08 00:58:55;;;;;;;11.85;8.02;;;4.60;99.90;;;;;;5092092;28;20085;-64
2022/12/08 01:01:21;;;;;;;11.90;8.80;;;4.60;99.90;;;;;;5093719;28;20057;-64
2022/12/08 01:03:46;;;;;;;10.48;8.10;;;4.60;99.90;;;;;;5095063;28;20083;-64
2022/12/08 01:06:12;;;;;;;11.80;9.52;;;4.60;99.90;;;;;;5107163;27;20472;-63
2022/12/08 01:08:38;;;;;;;12.27;9.65;;;4.60;99.90;;;;;;5119624;27;20078;-63
2022/12/08 01:11:06;;;;;;;15.20;10.23;;;4.60;99.90;;;;;;5120156;27;20884;-64
2022/12/08 01:13:32;;;;;;;18.98;11.60;;;4.50;99.90;;;;;;5111966;27;20036;-64
2022/12/08 01:15:57;;;;;;;14.23;10.50;;;4.50;99.90;;;;;;5105345;28;20107;-63
2022/12/08 01:18:23;;;;;;;16.85;12.35;;;4.50;99.90;;;;;;5102022;28;20165;-64
2022/12/08 01:20:48;;;;;;;15.48;12.65;;;4.50;99.90;;;;;;5106111;28;20451;-64
2022/12/08 01:23:14;;;;;;;15.60;12.27;;;4.50;99.90;;;;;;5100113;28;20036;-64
2022/12/08 01:25:40;;;;;;;14.88;11.80;;;4.60;99.90;;;;;;5103910;28;20024;-64
2022/12/08 01:28:05;;;;;;;17.80;12.40;;;4.50;99.90;;;;;;5103364;28;20016;-63
2022/12/08 01:30:31;;;;;;;15.85;12.13;;;4.50;99.90;;;;;;5088256;28;20031;-63
2022/12/08 01:32:56;;;;;;;14.52;12.38;;;4.50;99.90;;;;;;5101534;28;20023;-63
2022/12/08 01:35:22;;;;;;;16.90;12.50;;;4.50;99.90;;;;;;5102075;28;20063;-63
2022/12/08 01:37:48;;;;;;;16.50;12.27;;;4.50;99.90;;;;;;5104094;28;20486;-64
2022/12/08 01:40:14;;;;;;;17.40;12.27;;;4.50;99.90;;;;;;5078713;28;20248;-64
2022/12/08 01:42:40;;;;;;;20.52;12.02;;;4.50;99.90;;;;;;5096225;28;20024;-64
2022/12/08 01:45:30;;;;;;;16.08;11.70;;;4.50;99.90;;;;;;5092926;28;20024;-63
2022/12/08 01:47:57;;;;;;;;;;;4.60;99.90;;;;;;5097391;28;20460;-64
2022/12/08 01:50:23;;;;;;;14.73;10.60;;;4.50;99.90;;;;;;5103223;28;20064;-64
2022/12/08 01:53:00;;;;;;;15.52;10.10;;;4.50;99.90;;;;;;5100039;28;20501;-64
2022/12/08 01:55:38;;;;;;;13.75;10.10;;;4.50;99.90;;;;;;5103937;28;20024;-63
2022/12/08 01:58:11;;;;;;;14.35;10.55;;;4.50;99.90;;;;;;5107620;28;20028;-64
2022/12/08 02:00:36;;;;;;;15.15;10.13;;;4.50;99.90;;;;;;5101264;28;20023;-64
2022/12/08 02:03:06;;;;;;;16.35;9.35;;;4.50;99.90;;;;;;5101932;28;20031;-64
2022/12/08 02:05:34;;;;;;;15.80;10.13;;;4.50;99.90;;;;;;5104168;28;20023;-63
2022/12/08 02:08:05;;;;;;;12.27;9.30;;;4.60;99.90;;;;;;5106946;28;20297;-64
2022/12/08 02:10:34;;;;;;;11.32;8.60;;;4.50;99.90;;;;;;5103857;28;20016;-64
2022/12/08 02:13:00;;;;;;;11.98;8.95;;;4.60;99.90;;;;;;5100591;28;20661;-64
2022/12/08 02:15:35;;;;;;;10.95;8.27;;;4.50;99.90;;;;;;5098792;28;20108;-63
2022/12/08 02:18:34;;;;;;;12.70;9.05;;;4.60;99.90;;;;;;5120210;27;20027;-64
2022/12/08 02:21:16;;;;;;;11.63;8.50;;;4.60;99.90;;;;;;5104560;28;20026;-64
2022/12/08 02:23:59;;;;;;;13.93;8.68;;;4.50;99.90;;;;;;5077402;27;20507;-64
2022/12/08 02:26:43;;;;;;;10.35;8.43;;;4.50;99.90;;;;;;5119138;27;20532;-64
2022/12/08 02:29:32;;;;;;;13.35;9.13;;;4.50;99.90;;;;;;5104656;27;20043;-64
2022/12/08 02:32:29;;;;;;;10.45;8.07;;;4.50;99.90;;;;;;5088306;28;20134;-63
2022/12/08 02:35:28;;;;;;;10.88;8.02;;;4.50;99.90;;;;;;5096461;28;20044;-63
2022/12/08 02:38:05;;;;;;;9.82;7.20;;;4.50;99.90;;;;;;5103591;28;20111;-64
2022/12/08 02:40:43;;;;;;;10.48;6.88;;;4.50;99.90;;;;;;5104115;28;20095;-64
2022/12/08 02:43:16;;;;;;;10.60;7.93;;;4.50;99.90;;;;;;5092257;28;20032;-63
2022/12/08 02:45:50;;;;;;;11.70;7.65;;;4.50;99.90;;;;;;5100556;28;20468;-66
2022/12/08 02:48:16;;;;;;;9.65;6.55;;;4.50;99.90;;;;;;5099197;28;20039;-64
2022/12/08 02:50:42;;;;;;;9.07;7.18;;;4.50;99.90;;;;;;5080668;28;20392;-64
2022/12/08 02:53:08;;;;;;;8.63;6.30;;;4.50;99.90;;;;;;5102239;28;20073;-64
2022/12/08 02:56:05;;;;;;;7.75;6.07;;;4.60;99.90;;;;;;5103474;28;20023;-63
2022/12/08 02:58:48;;;;;;;8.20;6.18;;;4.60;99.90;;;;;;5071695;28;20034;-64
2022/12/08 03:01:31;;;;;;;7.10;5.97;;;4.60;99.90;;;;;;5105884;28;20038;-63
2022/12/08 03:04:28;;;;;;;7.57;5.45;;;4.60;99.90;;;;;;5074788;28;20508;-64
2022/12/08 03:07:03;;;;;;;6.57;5.28;;;4.60;99.90;;;;;;5101263;28;20024;-63
2022/12/08 03:09:44;;;;;;;6.47;4.95;;;4.60;99.90;;;;;;5108519;28;20012;-63
2022/12/08 03:12:25;;;;;;;9.25;6.03;;;4.70;99.90;;;;;;5106166;28;20519;-64
2022/12/08 03:14:54;;;;;;;6.57;5.22;;;4.70;99.90;;;;;;5105521;28;20027;-64
2022/12/08 03:17:24;;;;;;;7.63;5.33;;;4.70;99.90;;;;;;5101073;28;20042;-64
2022/12/08 03:19:52;;;;;;;6.50;4.70;;;4.60;99.90;;;;;;5100582;28;20095;-64
2022/12/08 03:22:23;;;;;;;5.78;4.07;;;4.60;99.90;;;;;;5079642;28;20034;-64
2022/12/08 03:24:49;;;;;;;7.38;5.05;;;4.70;99.90;;;;;;5101277;28;20019;-64
2022/12/08 03:27:18;;;;;;;6.40;4.18;;;4.70;99.90;;;;;;5094785;28;20043;-64
2022/12/08 03:29:49;;;;;;;6.47;4.07;;;4.70;99.90;;;;;;5099357;28;20020;-64
2022/12/08 03:32:40;;;;;;;5.07;3.92;;;4.70;99.90;;;;;;5102459;28;20503;-64
2022/12/08 03:35:12;;;;;;;5.88;4.25;;;4.70;99.90;;;;;;5093777;28;20040;-63
2022/12/08 03:37:39;;;;;;;5.55;4.20;;;4.70;99.90;;;;;;5095143;28;20107;-64
2022/12/08 03:40:09;;;;;;;3.95;2.70;;;4.70;99.90;;;;;;5096491;28;20962;-63
2022/12/08 03:42:35;;;;;;;3.40;2.50;;;4.60;99.90;;;;;;5098430;28;20032;-63
2022/12/08 03:45:00;;;;;;;4.32;2.28;;;4.60;99.90;;;;;;5103698;28;20541;-64
2022/12/08 03:47:26;;;;;;;2.50;1.90;;;4.70;99.90;;;;;;5107919;28;20027;-63
2022/12/08 03:49:51;;;;;;;3.15;2.00;;;4.70;99.90;;;;;;5086739;28;20016;-64
2022/12/08 03:52:17;;;;;;;3.13;1.90;;;4.70;99.90;;;;;;5099004;28;20028;-64
2022/12/08 03:54:42;;;;;;;2.63;1.45;;;4.70;99.90;;;;;;5098432;28;20023;-63
2022/12/08 03:57:08;;;;;;;2.92;1.70;;;4.60;99.90;;;;;;5104243;28;20032;-64
2022/12/08 03:59:33;;;;;;;1.83;1.30;;;4.70;99.90;;;;;;5103646;28;20028;-64
2022/12/08 04:01:59;;;;;;;2.28;1.30;;;4.70;99.90;;;;;;5098520;28;20023;-64
2022/12/08 04:04:25;;;;;;;2.72;1.52;;;4.70;99.90;;;;;;5103795;28;20028;-64
2022/12/08 04:06:50;;;;;;;2.53;1.30;;;4.70;99.90;;;;;;5100582;28;20030;-64
2022/12/08 04:09:16;;;;;;;2.08;1.40;;;4.60;99.90;;;;;;5095525;28;20494;-64
2022/12/08 04:11:41;;;;;;;3.63;1.80;;;4.60;99.90;;;;;;5094510;28;20473;-64
2022/12/08 04:14:07;;;;;;;3.72;1.80;;;4.60;99.90;;;;;;5101187;28;20028;-64
2022/12/08 04:16:33;;;;;;;2.72;1.70;;;4.60;99.90;;;;;;5104347;28;20428;-63
2022/12/08 04:18:58;;;;;;;2.55;1.75;;;4.60;99.90;;;;;;5100013;28;20032;-63
2022/12/08 04:21:24;;;;;;;3.13;1.75;;;4.60;99.90;;;;;;5097454;28;20023;-64
2022/12/08 04:23:49;;;;;;;3.63;1.80;;;4.50;99.90;;;;;;5103653;28;20020;-64
2022/12/08 04:26:16;;;;;;;2.08;1.60;;;4.60;99.90;;;;;;5100832;28;20595;-64
2022/12/08 04:28:41;;;;;;;2.00;1.10;;;4.60;99.90;;;;;;5099451;28;20019;-64
2022/12/08 04:31:07;;;;;;;1.95;1.27;;;4.60;99.90;;;;;;5094619;28;20034;-63
2022/12/08 04:33:34;;;;;;;3.90;1.55;;;4.60;99.90;;;;;;5104613;28;20048;-64
2022/12/08 04:36:00;;;;;;;1.88;0.95;;;4.60;99.90;;;;;;5099971;28;20389;-64
2022/12/08 04:38:26;;;;;;;1.80;1.05;;;4.60;99.90;;;;;;5100398;28;20028;-63
2022/12/08 04:40:51;;;;;;;2.08;1.50;;;4.60;99.90;;;;;;5100582;28;20030;-64
2022/12/08 04:43:17;;;;;;;3.13;1.60;;;4.60;99.90;;;;;;5098464;28;20169;-64
2022/12/08 04:45:43;;;;;;;2.75;1.52;;;4.60;99.90;;;;;;5096932;28;20104;-64
2022/12/08 04:48:10;;;;;;;3.33;1.40;;;4.60;99.90;;;;;;5101641;28;20044;-63
2022/12/08 04:50:39;;;;;;;1.50;1.20;;;4.60;99.90;;;;;;5093836;28;20028;-64
2022/12/08 04:53:05;;;;;;;1.75;1.30;;;4.60;99.90;;;;;;5098497;28;20035;-64
2022/12/08 04:55:30;;;;;;;2.42;1.20;;;4.60;99.90;;;;;;5103981;28;20019;-64
2022/12/08 04:57:56;;;;;;;3.35;0.90;;;4.60;99.90;;;;;;5101488;28;20460;-64
2022/12/08 05:00:21;;;;;;;2.38;1.00;;;4.60;99.90;;;;;;5095979;28;20040;-64
2022/12/08 05:02:47;;;;;;;2.65;1.00;;;4.60;99.90;;;;;;5101098;28;20036;-64
2022/12/08 05:05:12;;;;;;;1.40;0.60;;;4.60;99.90;;;;;;5103627;28;20028;-64
2022/12/08 05:07:38;;;;;;;1.08;0.60;;;4.60;99.90;;;;;;5095605;28;20024;-64
2022/12/08 05:10:04;;;;;;;1.05;0.52;;;4.60;99.90;;;;;;5097768;28;20485;-64
2022/12/08 05:12:30;;;;;;;1.27;0.50;;;4.60;99.90;;;;;;5098415;28;20068;-64
2022/12/08 05:14:55;;;;;;;0.65;0.30;;;4.60;99.90;;;;;;5100038;28;20061;-64
2022/12/08 05:17:21;;;;;;;0.50;0.40;;;4.60;99.90;;;;;;5097939;28;20024;-64
2022/12/08 05:19:46;;;;;;;0.65;0.40;;;4.60;99.90;;;;;;5098574;28;20096;-64
2022/12/08 05:22:12;;;;;;;1.50;0.30;;;4.60;99.90;;;;;;5074619;28;20028;-64
2022/12/08 05:24:37;;;;;;;0.60;0.30;;;4.50;99.90;;;;;;5101605;28;20028;-64
2022/12/08 05:27:03;;;;;;;0.75;0.30;;;4.50;99.90;;;;;;5101994;28;20407;-64
2022/12/08 05:29:28;;;;;;;0.80;0.30;;;4.50;99.90;;;;;;5116461;28;20047;-63
2022/12/08 05:31:54;;;;;;;0.57;0.20;;;4.40;99.90;;;;;;5100387;28;20027;-64
2022/12/08 05:34:19;;;;;;;1.45;0.20;;;4.50;99.90;;;;;;5103892;28;20085;-64
2022/12/08 05:36:45;;;;;;;0.50;0.20;;;4.40;99.90;;;;;;5107881;28;20023;-63
2022/12/08 05:39:14;;;;;;;1.20;0.20;;;4.40;99.90;;;;;;5088485;28;20080;-63
2022/12/08 05:41:40;;;;;;;2.05;0.40;;;4.40;99.90;;;;;;5097408;28;20095;-64
2022/12/08 05:44:06;;;;;;;0.65;0.30;;;4.40;99.90;;;;;;5101229;27;20110;-63
2022/12/08 05:46:32;;;;;;;1.00;0.40;;;4.40;99.90;;;;;;5106185;28;20043;-65
2022/12/08 05:49:02;;;;;;;2.00;0.40;;;4.40;99.90;;;;;;5110891;28;20493;-64
2022/12/08 05:51:28;;;;;;;;;;;4.40;99.90;;;;;;5099431;28;20541;-64
2022/12/08 05:53:54;;;;;;;0.90;0.45;;;4.40;99.90;;;;;;5100692;28;19997;-64
2022/12/08 05:56:20;;;;;;;0.60;0.50;;;4.30;99.90;;;;;;5101713;27;20495;-63
2022/12/08 05:58:46;;;;;;;0.80;0.40;;;4.40;99.90;;;;;;5078972;28;20117;-64
2022/12/08 06:01:22;;;;;;;1.50;0.50;;;4.40;99.90;;;;;;5102126;28;20426;-64
2022/12/08 06:03:47;;;;;;;0.85;0.50;;;4.50;99.90;;;;;;5108051;28;20024;-63
2022/12/08 06:06:13;;;;;;;1.23;0.90;;;4.50;99.90;;;;;;5097985;27;20386;-64
2022/12/08 06:08:38;;;;;;;0.93;0.60;;;4.50;99.90;;;;;;5096706;28;20389;-64
2022/12/08 06:11:04;;;;;;;1.00;0.80;;;4.50;99.90;;;;;;5104050;28;20385;-63
2022/12/08 06:13:29;;;;;;;3.42;1.00;;;4.50;99.90;;;;;;5092875;28;20448;-64
2022/12/08 06:15:55;;;;;;;3.65;1.33;;;4.40;99.90;;;;;;5094587;28;20028;-63
2022/12/08 06:18:20;;;;;;;3.10;1.25;;;4.50;99.90;;;;;;5107282;28;20492;-63
2022/12/08 06:20:46;;;;;;;2.15;1.17;;;4.50;99.90;;;;;;5101451;28;20549;-63
2022/12/08 06:23:12;;;;;;;2.03;1.20;;;4.40;99.90;;;;;;5112638;28;20427;-63
2022/12/08 06:25:37;;;;;;;2.15;1.10;;;4.40;99.90;;;;;;5109030;28;20050;-63
2022/12/08 06:28:05;;;;;;;1.85;1.02;;;4.40;99.90;;;;;;5108748;28;20048;-63
2022/12/08 06:30:31;;;;;;;2.33;1.45;;;4.40;99.90;;;;;;5103469;28;20107;-63
2022/12/08 06:32:56;;;;;;;2.28;0.70;;;4.40;99.90;;;;;;5108560;28;20102;-62
2022/12/08 06:35:22;;;;;;;1.77;0.60;;;4.40;99.90;;;;;;5094915;28;20036;-63
2022/12/08 06:37:48;;;;;;;1.20;0.65;;;4.40;99.90;;;;;;5094163;28;20032;-62
2022/12/08 06:40:13;;;;;;;0.77;0.50;;;4.40;99.90;;;;;;5093961;28;20024;-63
2022/12/08 06:42:48;;;;;;;2.67;0.60;;;4.40;99.90;;;;;;5106962;28;20058;-62
2022/12/08 06:45:16;;;;;;;2.35;0.60;;;4.40;99.90;;;;;;5094309;28;20068;-63
2022/12/08 06:47:41;;;;;;;2.20;0.70;;;4.40;99.90;;;;;;5093461;28;20480;-63
2022/12/08 06:50:08;;;;;;;0.85;0.60;;;4.40;99.90;;;;;;5093954;28;20481;-63
2022/12/08 06:52:34;;;;;;;0.70;0.50;;;4.40;99.90;;;;;;5059015;28;20024;-63
2022/12/08 06:54:59;;;;;;;1.30;0.60;;;4.50;99.90;;;;;;5094338;28;20035;-63
2022/12/08 06:57:25;;;;;;;0.77;0.52;;;4.50;99.90;;;;;;5093569;28;20028;-63
2022/12/08 06:59:50;;;;;;;1.58;0.80;;;4.40;99.90;;;;;;5093743;28;20024;-63
2022/12/08 07:02:16;;;;;;;1.45;1.00;;;4.50;99.90;;;;;;5093339;28;20024;-64
2022/12/08 07:04:42;;;;;;;1.92;1.02;;;4.40;99.90;;;;;;5101727;28;20016;-63
2022/12/08 07:07:08;;;;;;;2.05;1.20;;;4.50;99.90;;;;;;5096052;28;20016;-63
2022/12/08 07:09:33;;;;;;;2.15;1.27;;;4.50;99.90;;;;;;5104578;28;20028;-63
2022/12/08 07:11:59;;;;;;;2.15;1.30;;;4.50;99.90;;;;;;5094138;28;20456;-63
2022/12/08 07:14:24;;;;;;;2.55;1.23;;;4.50;99.90;;;;;;5102990;28;20519;-63
2022/12/08 07:16:51;;;;;;;2.00;1.05;;;4.50;99.90;;;;;;5112993;27;20194;-62
2022/12/08 07:19:16;;;;;;;1.45;0.88;;;4.50;99.90;;;;;;5075871;28;20052;-62
2022/12/08 07:21:42;;;;;;;1.52;1.00;;;4.60;99.90;;;;;;5094209;28;20050;-63
2022/12/08 07:24:07;;;;;;;3.13;1.42;;;4.60;99.90;;;;;;5093311;28;20035;-63
2022/12/08 07:26:33;;;;;;;3.45;1.13;;;4.60;99.90;;;;;;5096937;28;20016;-63
2022/12/08 07:28:59;;;;;;;1.00;0.90;;;4.60;99.90;;;;;;5102315;28;20024;-63
2022/12/08 07:31:26;;;;;;;1.33;1.00;;;4.60;99.90;;;;;;5093553;28;20036;-63
2022/12/08 07:33:52;;;;;;;2.10;0.93;;;4.60;99.90;;;;;;5112345;28;20070;-63
2022/12/08 07:36:18;;;;;;;0.98;0.73;;;4.60;99.90;;;;;;5112763;28;20030;-63
2022/12/08 07:38:44;;;;;;;1.80;1.40;;;4.60;99.90;;;;;;5110728;28;20397;-63
2022/12/08 07:41:14;;;;;;;2.13;1.38;;;4.60;99.90;;;;;;5106171;28;20499;-63
2022/12/08 07:43:40;;;;;;;3.53;1.48;;;4.60;99.90;;;;;;5080109;28;20020;-63
2022/12/08 07:46:06;;;;;;;2.55;1.40;;;4.50;99.90;;;;;;5092876;28;20039;-63
2022/12/08 07:48:31;;;;;;;1.92;1.35;;;4.50;99.90;;;;;;5101114;28;20390;-64
2022/12/08 07:51:02;;;;;;;2.08;1.20;;;4.50;99.90;;;;;;5105240;28;20066;-63
2022/12/08 07:53:27;;;;;;;1.95;1.27;;;4.50;99.90;;;;;;5104615;27;20102;-63
2022/12/08 07:55:53;;;;;;;2.08;1.20;;;4.50;99.90;;;;;;5109742;28;20102;-63
2022/12/08 07:58:18;;;;;;;2.88;1.52;;;4.50;99.90;;;;;;5091826;28;20024;-64
2022/12/08 08:00:44;;;;;;;2.42;1.30;;;4.50;99.90;;;;;;5094979;28;20466;-63
2022/12/08 08:03:10;;;;;;;3.00;1.23;;;4.50;99.90;;;;;;5103273;28;20039;-63
2022/12/08 08:05:36;;;;;;;1.45;1.00;;;4.50;99.90;;;;;;5112414;28;20066;-64
2022/12/08 08:08:02;;;;;;;1.58;1.20;;;4.50;99.90;;;;;;5099950;28;20044;-64
2022/12/08 08:10:28;;;;;;;1.70;1.13;;;4.50;99.90;;;;;;5112070;28;20023;-64
2022/12/08 08:12:53;;;;;;;2.33;1.05;;;4.50;99.90;;;;;;5112232;28;20409;-64
2022/12/08 08:15:20;;;;;;;3.22;1.40;;;4.50;99.90;;;;;;5089027;28;20020;-63
2022/12/08 08:17:51;;;;;;;1.60;1.23;;;4.50;99.90;;;;;;5099276;28;20127;-63
2022/12/08 08:20:17;;;;;;;2.47;1.60;;;4.50;99.90;;;;;;5101426;28;20024;-64
2022/12/08 08:22:49;;;;;;;2.08;1.50;;;4.50;99.90;;;;;;5094352;28;20043;-63
2022/12/08 08:25:15;;;;;;;1.40;1.20;;;4.50;99.90;;;;;;5080065;28;20024;-63
2022/12/08 08:27:41;;;;;;;1.63;1.20;;;4.50;99.90;;;;;;5078379;28;20362;-63
2022/12/08 08:30:08;;;;;;;1.80;1.15;;;4.50;99.90;;;;;;5082701;28;20036;-64
2022/12/08 08:32:34;;;;;;;2.45;1.40;;;4.50;99.90;;;;;;5105333;28;20055;-63
2022/12/08 08:35:00;;;;;;;1.48;1.10;;;4.50;99.90;;;;;;5095675;28;20114;-63
2022/12/08 08:37:26;;;;;;;1.65;0.77;;;4.50;99.90;;;;;;5092446;28;20429;-64
2022/12/08 08:39:52;;;;;;;0.88;0.73;;;4.50;99.90;;;;;;5095103;28;20384;-63
2022/12/08 08:42:18;;;;;;;1.10;0.57;;;4.50;99.90;;;;;;5102211;28;20028;-64
2022/12/08 08:44:43;;;;;;;1.55;0.63;;;4.50;99.90;;;;;;5091994;28;20031;-64
2022/12/08 08:47:09;;;;;;;1.35;0.70;;;4.40;99.90;;;;;;5092378;28;20473;-63
2022/12/08 08:49:34;;;;;;;1.55;0.88;;;4.40;99.90;;;;;;5105366;28;20027;-63
2022/12/08 08:52:00;;;;;;;2.00;0.77;;;4.40;99.90;;;;;;5092026;28;20021;-64
2022/12/08 08:54:27;;;;;;;1.10;0.60;;;4.40;99.90;;;;;;5091993;28;20477;-63
2022/12/08 08:56:53;;;;;;;1.15;0.50;;;4.40;99.90;;;;;;5092165;28;20093;-63
2022/12/08 08:59:19;;;;;;;1.52;0.70;;;4.40;99.90;;;;;;5092208;28;20434;-63
2022/12/08 09:01:44;;;;;;;1.38;0.50;;;4.40;99.90;;;;;;5083633;28;20024;-63
2022/12/08 09:04:10;;;;;;;2.38;0.40;;;4.40;99.90;;;;;;5105480;28;20111;-63
2022/12/08 09:06:35;;;;;;;1.02;0.50;;;4.40;99.90;;;;;;5108293;28;20024;-63
2022/12/08 09:09:01;;;;;;;1.00;0.45;;;4.40;99.90;;;;;;5070546;28;20032;-63
2022/12/08 09:11:26;;;;;;;1.02;0.50;;;4.30;99.90;;;;;;5111698;28;20023;-63
2022/12/08 09:13:53;;;;;;;1.10;0.63;;;4.40;99.90;;;;;;5111504;28;20031;-63
2022/12/08 09:16:19;;;;;;;2.20;0.60;;;4.40;99.90;;;;;;5112481;28;20036;-63
2022/12/08 09:18:45;;;;;;;1.17;0.75;;;4.40;99.90;;;;;;5115247;28;20085;-63
2022/12/08 09:21:15;;;;;;;2.75;1.02;;;4.40;99.90;;;;;;5105760;28;20020;-63
2022/12/08 09:23:41;;;;;;;;;;;4.40;99.90;;;;;;5111088;28;20020;-65
2022/12/08 09:26:08;;;;;;;1.75;1.02;;;4.40;99.90;;;;;;5113901;28;19911;-64
2022/12/08 09:28:34;;;;;;;1.17;1.00;;;4.30;99.90;;;;;;5100131;28;20016;-64
2022/12/08 09:30:59;;;;;;;1.00;0.70;;;4.40;99.90;;;;;;5113508;28;20033;-64
2022/12/08 09:33:25;;;;;;;1.45;0.75;;;4.40;99.90;;;;;;5109476;28;20401;-64
2022/12/08 09:35:50;;;;;;;1.98;0.77;;;4.40;99.90;;;;;;5087058;28;20058;-64
2022/12/08 09:38:16;;;;;;;0.90;0.50;;;4.40;99.90;;;;;;5098083;28;20412;-64
2022/12/08 09:40:49;;;;;;;1.45;0.70;;;4.50;99.90;;;;;;5095345;28;20036;-64
2022/12/08 09:43:50;;;;;;;0.82;0.50;;;4.50;99.90;;;;;;5099566;28;20089;-64
2022/12/08 09:46:18;;;;;;;0.68;0.40;;;4.60;99.90;;;;;;5098794;28;20484;-64
2022/12/08 09:49:03;;;;;;;0.60;0.50;;;4.70;99.90;;;;;;5095217;28;20053;-64
2022/12/08 09:51:36;;;;;;;0.90;0.40;;;4.70;99.90;;;;;;5094953;28;20061;-64
2022/12/08 09:54:07;;;;;;;0.80;0.30;;;4.70;99.90;;;;;;5095761;28;20055;-64
2022/12/08 09:56:35;;;;;;;0.85;0.45;;;4.70;99.90;;;;;;5095309;28;20027;-64
2022/12/08 09:59:28;;;;;;;0.60;0.35;;;4.70;99.90;;;;;;5095550;28;20504;-64
2022/12/08 10:01:54;;;;;;;0.50;0.30;;;4.80;99.90;;;;;;5087973;28;20036;-64
2022/12/08 10:04:25;;;;;;;0.68;0.50;;;4.80;99.90;;;;;;5109748;28;20026;-64
2022/12/08 10:06:50;;;;;;;0.85;0.43;;;4.80;99.90;;;;;;5082597;28;20035;-64
2022/12/08 10:09:38;;;;;;;0.98;0.52;;;4.80;99.90;;;;;;5101996;28;20020;-64
2022/12/08 10:12:15;;;;;;;1.15;0.57;;;4.90;99.90;;;;;;5111714;28;20027;-64
2022/12/08 10:15:25;;;;;;;0.68;0.65;;;4.90;99.90;;;;;;5094624;28;20024;-64
2022/12/08 10:17:53;;;;;;;1.65;0.80;;;4.90;99.90;;;;;;5062504;28;20055;-64
2022/12/08 10:20:21;;;;;;;6.35;2.22;;;4.90;99.90;;;;;;5093760;28;20016;-64
2022/12/08 10:23:12;;;;;;;2.25;1.48;;;5.00;99.90;;;;;;5094425;28;20066;-64
2022/12/08 10:25:48;;;;;;;2.53;1.40;;;5.00;99.90;;;;;;5104409;28;20044;-64
2022/12/08 10:28:14;;;;;;;1.73;0.90;;;5.00;99.90;;;;;;5097495;28;20017;-64
2022/12/08 10:30:40;;;;;;;1.90;1.27;;;5.00;99.90;;;;;;5094757;28;20419;-64
2022/12/08 10:33:14;;;;;;;2.35;1.80;;;5.00;99.90;;;;;;5088515;28;20035;-64
2022/12/08 10:35:46;;;;;;;2.70;1.25;;;5.00;99.90;;;;;;5106245;28;20469;-64
2022/12/08 10:38:28;;;;;;;2.20;1.52;;;5.00;99.90;;;;;;5094327;28;20131;-64
2022/12/08 10:41:02;;;;;;;2.10;1.27;;;5.00;99.90;;;;;;5094223;28;20473;-64
2022/12/08 10:43:27;;;;;;;2.25;1.60;;;5.00;99.90;;;;;;5106895;28;20428;-64
2022/12/08 10:45:53;;;;;;;1.77;1.50;;;5.00;99.90;;;;;;5094105;28;20016;-64
2022/12/08 10:48:24;;;;;;;1.65;1.25;;;5.10;99.90;;;;;;5100347;28;20068;-64
2022/12/08 10:50:58;;;;;;;3.15;1.20;;;5.10;99.90;;;;;;5099618;28;20065;-64
2022/12/08 10:53:43;;;;;;;2.22;1.23;;;5.10;99.90;;;;;;5094099;28;20102;-64
2022/12/08 10:56:15;;;;;;;2.88;1.35;;;5.10;99.90;;;;;;5098339;28;20444;-64
2022/12/08 10:58:45;;;;;;;2.60;1.48;;;5.10;99.90;;;;;;5082637;28;20020;-64
2022/12/08 11:01:17;;;;;;;2.72;1.60;;;5.10;99.90;;;;;;5094308;28;20119;-64
2022/12/08 11:03:55;;;;;;;1.98;1.65;;;5.10;99.90;;;;;;5101666;28;20469;-64
2022/12/08 11:06:29;;;;;;;1.50;1.40;;;5.00;99.90;;;;;;5103492;28;20396;-64
2022/12/08 11:08:57;;;;;;;2.55;1.52;;;5.00;99.90;;;;;;5077994;28;20046;-64
2022/12/08 11:11:44;;;;;;;4.32;1.80;;;5.10;99.90;;;;;;5075327;28;20035;-64
2022/12/08 11:14:20;;;;;;;4.25;1.95;;;5.10;99.90;;;;;;5093375;28;20069;-64
2022/12/08 11:16:46;;;;;;;2.25;1.55;;;5.10;99.90;;;;;;5093675;28;20020;-64
2022/12/08 11:19:18;;;;;;;3.05;2.22;;;5.10;99.90;;;;;;5093466;28;20491;-64
2022/12/08 11:21:45;;;;;;;2.38;1.67;;;5.20;99.90;;;;;;5107253;28;20039;-64
2022/12/08 11:24:21;;;;;;;1.80;1.70;;;5.20;99.90;;;;;;5094062;28;20098;-64
2022/12/08 11:27:01;;;;;;;2.88;1.95;;;5.20;99.90;;;;;;5093775;28;20496;-64
2022/12/08 11:29:28;;;;;;;;;;;5.30;99.90;;;;;;5094044;28;20077;-64
2022/12/08 11:31:59;;;;;;;2.58;1.73;;;5.20;99.90;;;;;;5095210;28;19990;-64
2022/12/08 11:34:49;;;;;;;2.03;1.70;;;5.20;99.90;;;;;;5101884;28;20075;-64
2022/12/08 11:37:23;;;;;;;2.33;1.73;;;5.30;99.90;;;;;;5074716;28;20023;-64
2022/12/08 11:39:52;;;;;;;2.30;1.90;;;5.30;99.90;;;;;;5092847;28;20089;-64
2022/12/08 11:42:23;;;;;;;2.28;1.70;;;5.40;99.90;;;;;;5093306;28;20020;-64
2022/12/08 11:44:58;;;;;;;2.97;1.70;;;5.40;99.90;;;;;;5092506;28;20389;-64
2022/12/08 11:47:36;;;;;;;1.45;1.33;;;5.40;99.90;;;;;;5105598;28;20062;-64
2022/12/08 11:50:16;;;;;;;3.10;1.45;;;5.50;99.90;;;;;;5093856;28;20481;-64
2022/12/08 11:52:50;;;;;;;3.08;1.67;;;5.50;99.90;;;;;;5094808;28;20035;-64
2022/12/08 11:55:41;;;;;;;3.13;1.75;;;5.50;99.90;;;;;;5102401;28;20106;-64
2022/12/08 11:58:36;;;;;;;3.72;2.13;;;5.60;99.90;;;;;;5093323;28;20042;-64
2022/12/08 12:01:02;;;;;;;3.47;2.70;;;5.60;99.90;;;;;;5091427;28;20036;-64
2022/12/08 12:03:39;;;;;;;2.63;2.28;;;5.50;99.90;;;;;;5100484;28;20024;-64
2022/12/08 12:06:20;;;;;;;2.00;1.73;;;5.50;99.90;;;;;;5074600;28;20016;-64
2022/12/08 12:09:05;;;;;;;2.10;1.42;;;5.50;99.90;;;;;;5092838;28;20047;-64
2022/12/08 12:12:12;;;;;;;2.63;1.33;;;5.40;99.90;;;;;;5109102;28;20020;-64
2022/12/08 12:14:59;;;;;;;1.67;1.20;;;5.40;99.90;;;;;;5097784;28;20109;-64
2022/12/08 12:17:40;;;;;;;2.42;1.35;;;5.40;99.90;;;;;;5092183;28;20091;-64
2022/12/08 12:20:14;;;;;;;4.53;1.35;;;5.40;99.90;;;;;;5077093;28;20019;-64
2022/12/08 12:22:41;;;;;;;2.22;1.10;;;5.40;99.90;;;;;;5106785;28;20062;-64
2022/12/08 12:25:16;;;;;;;1.80;1.20;;;5.30;99.90;;;;;;5073754;28;20031;-64
2022/12/08 12:27:43;;;;;;;1.38;0.95;;;5.40;99.90;;;;;;5092308;28;20019;-64
2022/12/08 12:30:22;;;;;;;2.08;1.00;;;5.40;99.90;;;;;;5100770;28;20073;-64
2022/12/08 12:32:56;;;;;;;1.55;0.80;;;5.40;99.90;;;;;;5090232;28;20062;-64
2022/12/08 12:35:42;;;;;;;1.20;0.60;;;5.40;99.90;;;;;;5092908;28;20024;-64
2022/12/08 12:41:07;;;;;;;1.88;0.70;;;5.50;99.90;;;;;;5092784;28;20123;-64
2022/12/08 12:43:37;;;;;;;0.90;0.50;;;5.60;99.90;;;;;;5093871;28;20020;-64
2022/12/08 12:46:21;;;;;;;0.98;0.50;;;5.60;99.90;;;;;;5096592;28;20393;-64
2022/12/08 12:48:47;;;;;;;1.23;0.40;;;5.80;99.90;;;;;;5116028;28;20020;-64
2022/12/08 12:51:37;;;;;;;0.95;0.32;;;5.80;99.90;;;;;;5114629;28;20392;-64
2022/12/08 12:54:42;;;;;;;1.20;0.40;;;5.90;99.90;;;;;;5095001;28;20107;-64
2022/12/08 12:57:08;;;;;;;0.65;0.30;;;6.00;99.90;;;;;;5012251;28;20431;-65
2022/12/08 12:59:52;;;;;;;0.93;0.30;;;5.90;99.90;;;;;;4995438;28;20070;-64
2022/12/08 13:02:22;;;;;;;0.75;0.40;;;5.90;99.90;;;;;;5071924;28;20032;-64
2022/12/08 13:04:59;;;;;;;0.35;0.20;;;5.90;99.90;;;;;;5094696;28;20027;-64
2022/12/08 13:07:35;;;;;;;0.73;0.22;;;5.90;99.90;;;;;;5108467;28;20021;-64
2022/12/08 13:10:16;;;;;;;0.30;0.20;;;5.80;99.90;;;;;;5114965;28;20022;-64
2022/12/08 13:12:43;;;;;;;1.55;0.30;;;5.80;99.90;;;;;;5108699;28;20012;-65
2022/12/08 13:15:18;;;;;;;0.20;0.15;;;5.80;99.90;;;;;;5111742;28;20053;-64
2022/12/08 13:17:47;;;;;;;0.65;0.20;;;5.80;99.90;;;;;;5092112;28;20043;-64
2022/12/08 13:20:22;;;;;;;0.47;0.30;;;5.90;99.90;;;;;;5097783;28;20043;-64